createdAt,value
2017-06-22T00:01:50.100Z,90.60
2017-06-22T00:04:19.073Z,90.80
2017-06-22T00:06:48.129Z,90.70
2017-06-22T00:09:17.068Z,90.50
2017-06-22T00:11:46.071Z,90.70
2017-06-22T00:14:15.056Z,90.70
2017-06-22T00:16:44.554Z,90.60
2017-06-22T00:19:13.561Z,90.90
2017-06-22T00:21:42.559Z,91.30
2017-06-22T00:24:11.526Z,91.10
2017-06-22T00:26:40.729Z,91.80
2017-06-22T00:29:09.727Z,91.00
2017-06-22T00:31:38.686Z,91.10
2017-06-22T00:34:07.668Z,91.30
2017-06-22T00:36:36.682Z,91.50
2017-06-22T00:39:05.904Z,91.50
2017-06-22T00:41:34.878Z,91.20
2017-06-22T00:44:03.975Z,91.10
2017-06-22T00:46:32.959Z,91.70
2017-06-22T00:49:01.925Z,92.30
2017-06-22T00:51:30.948Z,92.00
2017-06-22T00:53:59.967Z,92.00
2017-06-22T00:56:28.919Z,92.10
2017-06-22T00:58:57.846Z,91.70
2017-06-22T01:01:26.800Z,91.80
2017-06-22T01:03:55.793Z,92.10
2017-06-22T01:06:24.785Z,92.60
2017-06-22T01:08:53.758Z,92.40
2017-06-22T01:11:22.793Z,92.50
2017-06-22T01:13:51.899Z,92.60
2017-06-22T01:16:20.873Z,92.80
2017-06-22T01:18:49.886Z,92.60
2017-06-22T01:21:19.273Z,92.10
2017-06-22T01:23:48.236Z,92.30
2017-06-22T01:26:17.265Z,92.40
2017-06-22T01:28:46.245Z,92.60
2017-06-22T01:31:15.320Z,91.80
2017-06-22T01:33:44.365Z,91.60
2017-06-22T01:36:43.928Z,91.90
2017-06-22T01:39:12.973Z,92.10
2017-06-22T01:41:42.079Z,92.20
2017-06-22T01:44:11.115Z,92.50
2017-06-22T01:46:40.092Z,92.70
2017-06-22T01:49:09.105Z,92.70
2017-06-22T01:51:38.187Z,92.60
2017-06-22T01:54:07.196Z,92.70
2017-06-22T01:56:36.197Z,92.90
2017-06-22T01:59:05.158Z,93.10
2017-06-22T02:01:34.137Z,93.10
2017-06-22T02:04:03.174Z,93.20
2017-06-22T02:06:32.163Z,93.30
2017-06-22T02:09:01.210Z,93.40
2017-06-22T02:11:30.160Z,93.30
2017-06-22T02:13:59.141Z,93.30
2017-06-22T02:16:28.124Z,93.20
2017-06-22T02:18:57.115Z,93.30
2017-06-22T02:21:26.067Z,93.30
2017-06-22T02:23:55.236Z,93.30
2017-06-22T02:26:24.211Z,93.40
2017-06-22T02:28:53.160Z,93.30
2017-06-22T02:31:22.178Z,93.30
2017-06-22T02:33:51.118Z,93.30
2017-06-22T02:36:20.093Z,93.30
2017-06-22T02:38:49.109Z,93.50
2017-06-22T02:41:18.094Z,93.30
2017-06-22T02:43:47.069Z,93.50
2017-06-22T02:46:16.045Z,93.80
2017-06-22T02:48:45.205Z,93.90
2017-06-22T02:51:14.169Z,93.80
2017-06-22T02:53:43.176Z,93.80
2017-06-22T02:56:12.193Z,93.90
2017-06-22T02:58:41.163Z,93.70
2017-06-22T03:01:10.142Z,93.80
2017-06-22T03:03:39.168Z,93.90
2017-06-22T03:06:08.194Z,93.90
2017-06-22T03:08:37.168Z,94.20
2017-06-22T03:11:06.161Z,94.40
2017-06-22T03:13:35.179Z,94.50
2017-06-22T03:17:23.818Z,94.40
2017-06-22T03:19:52.937Z,94.70
2017-06-22T03:22:21.952Z,94.60
2017-06-22T03:24:50.970Z,95.00
2017-06-22T03:27:19.934Z,95.00
2017-06-22T03:29:48.886Z,94.80
2017-06-22T03:32:17.879Z,94.80
2017-06-22T03:34:46.869Z,94.70
2017-06-22T03:37:15.882Z,95.20
2017-06-22T03:39:44.847Z,95.40
2017-06-22T03:42:13.855Z,94.90
2017-06-22T03:44:42.836Z,94.80
2017-06-22T03:47:11.845Z,94.70
2017-06-22T03:49:40.932Z,94.60
2017-06-22T03:52:09.887Z,94.80
2017-06-22T03:54:38.913Z,94.60
2017-06-22T03:57:07.978Z,94.70
2017-06-22T03:59:36.953Z,94.70
2017-06-22T04:02:05.936Z,94.80
2017-06-22T04:04:34.881Z,94.60
2017-06-22T04:07:03.817Z,94.60
2017-06-22T04:09:32.801Z,94.50
2017-06-22T04:12:01.806Z,94.40
2017-06-22T04:14:30.785Z,95.00
2017-06-22T04:16:59.836Z,94.60
2017-06-22T04:19:28.799Z,94.40
2017-06-22T04:21:57.783Z,94.40
2017-06-22T04:24:26.778Z,94.20
2017-06-22T04:26:55.813Z,94.10
2017-06-22T04:29:24.798Z,93.80
2017-06-22T04:31:53.754Z,94.20
2017-06-22T04:34:22.762Z,94.00
2017-06-22T04:36:51.789Z,93.80
2017-06-22T04:39:20.770Z,93.70
2017-06-22T04:41:49.800Z,93.50
2017-06-22T04:44:18.765Z,93.10
2017-06-22T04:46:47.749Z,92.00
2017-06-22T04:49:16.709Z,91.30
2017-06-22T04:51:47.045Z,90.60
2017-06-22T04:54:16.030Z,87.30
2017-06-22T04:56:45.102Z,84.60
2017-06-22T04:59:14.083Z,82.00
2017-06-22T05:01:43.074Z,80.20
2017-06-22T05:04:12.453Z,77.60
2017-06-22T05:06:41.441Z,75.80
2017-06-22T05:09:13.351Z,74.40
2017-06-22T05:11:42.314Z,74.30
2017-06-22T05:14:12.282Z,74.10
2017-06-22T05:16:41.342Z,74.50
2017-06-22T05:19:10.337Z,72.80
2017-06-22T05:21:39.278Z,70.80
2017-06-22T05:24:08.772Z,71.80
2017-06-22T05:26:38.420Z,69.20
2017-06-22T05:29:07.396Z,67.90
2017-06-22T05:31:36.384Z,66.20
2017-06-22T05:34:05.429Z,65.10
2017-06-22T05:36:34.394Z,65.80
2017-06-22T05:39:03.572Z,67.80
2017-06-22T05:41:32.713Z,67.10
2017-06-22T05:44:01.758Z,68.30
2017-06-22T05:46:30.817Z,70.40
2017-06-22T05:48:59.809Z,71.20
2017-06-22T05:51:28.900Z,71.50
2017-06-22T05:53:57.913Z,71.80
2017-06-22T05:56:26.912Z,70.90
2017-06-22T05:58:55.908Z,70.00
2017-06-22T06:01:24.929Z,69.60
2017-06-22T06:03:58.562Z,70.10
2017-06-22T06:06:27.602Z,69.80
2017-06-22T06:08:56.678Z,68.70
2017-06-22T06:11:25.649Z,67.30
2017-06-22T06:13:54.663Z,67.50
2017-06-22T06:16:23.646Z,69.10
2017-06-22T06:18:52.830Z,68.00
2017-06-22T06:21:21.892Z,69.60
2017-06-22T06:23:50.908Z,68.70
2017-06-22T06:26:20.087Z,69.80
2017-06-22T06:28:49.189Z,71.10
2017-06-22T06:31:18.223Z,70.80
2017-06-22T06:33:47.222Z,69.50
2017-06-22T06:36:16.347Z,71.10
2017-06-22T06:38:45.912Z,69.50
2017-06-22T06:41:15.205Z,70.20
2017-06-22T06:43:44.430Z,69.30
2017-06-22T06:46:13.637Z,70.60
2017-06-22T06:48:42.842Z,71.70
2017-06-22T06:51:11.973Z,69.20
2017-06-22T06:53:42.152Z,68.80
2017-06-22T06:56:11.742Z,69.10
2017-06-22T06:58:40.792Z,69.50
2017-06-22T07:01:09.930Z,68.00
2017-06-22T07:03:38.985Z,67.80
2017-06-22T07:06:07.988Z,67.10
2017-06-22T07:08:36.938Z,65.90
2017-06-22T07:11:05.914Z,66.10
2017-06-22T07:13:34.886Z,67.00
2017-06-22T07:16:03.923Z,66.60
2017-06-22T07:18:32.933Z,66.70
2017-06-22T07:21:02.020Z,63.50
2017-06-22T07:23:31.291Z,60.20
2017-06-22T07:26:00.286Z,57.50
2017-06-22T07:28:29.325Z,57.20
2017-06-22T07:30:58.328Z,54.70
2017-06-22T07:33:27.458Z,53.80
2017-06-22T07:35:56.470Z,54.90
2017-06-22T07:38:25.488Z,53.60
2017-06-22T07:40:54.589Z,51.70
2017-06-22T07:43:23.691Z,53.20
2017-06-22T07:45:52.718Z,53.40
2017-06-22T07:48:21.702Z,54.40
2017-06-22T07:50:50.783Z,55.20
2017-06-22T07:53:19.834Z,55.80
2017-06-22T07:55:48.865Z,53.90
2017-06-22T07:58:17.985Z,54.80
2017-06-22T08:00:47.042Z,53.60
2017-06-22T08:03:16.033Z,55.80
2017-06-22T08:05:45.170Z,54.60
2017-06-22T08:08:14.275Z,52.50
2017-06-22T08:10:43.318Z,52.90
2017-06-22T08:13:12.402Z,49.00
2017-06-22T08:15:41.430Z,48.80
2017-06-22T08:18:10.426Z,46.70
2017-06-22T08:20:39.600Z,45.00
2017-06-22T08:23:08.718Z,43.30
2017-06-22T08:25:37.711Z,44.30
2017-06-22T08:28:06.698Z,46.10
2017-06-22T08:30:35.706Z,42.90
2017-06-22T08:33:04.770Z,42.30
2017-06-22T08:35:33.933Z,44.20
2017-06-22T08:38:03.044Z,43.40
2017-06-22T08:40:32.072Z,43.50
2017-06-22T08:43:01.113Z,43.20
2017-06-22T08:45:30.103Z,43.80
2017-06-22T08:47:59.179Z,40.40
2017-06-22T08:50:28.252Z,40.40
2017-06-22T08:52:59.202Z,40.00
2017-06-22T08:55:28.312Z,37.40
2017-06-22T08:57:57.429Z,39.20
2017-06-22T09:00:26.445Z,40.70
2017-06-22T09:02:59.310Z,39.80
2017-06-22T09:05:28.371Z,36.70
2017-06-22T09:08:00.030Z,37.00
2017-06-22T09:10:29.071Z,36.10
2017-06-22T09:12:58.404Z,35.70
2017-06-22T09:15:27.429Z,35.60
2017-06-22T09:17:56.478Z,38.60
2017-06-22T09:20:25.543Z,37.30
2017-06-22T09:22:54.592Z,37.90
2017-06-22T09:25:23.656Z,37.20
2017-06-22T09:27:52.799Z,35.30
2017-06-22T09:30:21.912Z,35.90
2017-06-22T09:32:51.010Z,37.10
2017-06-22T09:35:20.060Z,36.10
2017-06-22T09:37:49.114Z,34.60
2017-06-22T09:40:18.199Z,35.30
2017-06-22T09:42:47.207Z,33.10
2017-06-22T09:45:16.225Z,35.60
2017-06-22T09:47:45.342Z,34.00
2017-06-22T09:50:14.413Z,34.80
2017-06-22T09:52:43.545Z,32.00
2017-06-22T09:55:12.642Z,31.90
2017-06-22T09:57:41.713Z,33.80
2017-06-22T10:00:10.767Z,37.60
2017-06-22T10:02:39.736Z,39.00
2017-06-22T10:05:08.769Z,35.70
2017-06-22T10:07:37.795Z,32.80
2017-06-22T10:10:06.794Z,31.50
2017-06-22T10:12:35.845Z,33.50
2017-06-22T10:15:04.968Z,32.90
2017-06-22T10:17:34.151Z,31.40
2017-06-22T10:20:03.118Z,31.00
2017-06-22T10:22:32.250Z,30.90
2017-06-22T10:25:01.356Z,31.90
2017-06-22T10:27:30.444Z,33.30
2017-06-22T10:29:59.605Z,32.50
2017-06-22T10:32:29.096Z,31.30
2017-06-22T10:34:58.163Z,32.10
2017-06-22T10:37:27.198Z,31.00
2017-06-22T10:39:56.240Z,30.70
2017-06-22T10:42:25.254Z,31.20
2017-06-22T10:44:54.525Z,30.30
2017-06-22T10:47:23.618Z,34.00
2017-06-22T10:49:52.771Z,33.00
2017-06-22T10:52:22.023Z,33.80
2017-06-22T10:54:51.095Z,34.80
2017-06-22T10:57:20.217Z,33.00
2017-06-22T10:59:49.265Z,33.90
2017-06-22T11:02:28.339Z,33.10
2017-06-22T11:04:57.582Z,32.50
2017-06-22T11:07:26.663Z,32.60
2017-06-22T11:09:56.004Z,32.90
2017-06-22T11:12:25.925Z,32.70
2017-06-22T11:14:54.948Z,33.20
2017-06-22T11:17:24.109Z,33.00
2017-06-22T11:19:53.218Z,31.90
2017-06-22T11:22:22.519Z,32.40
2017-06-22T11:24:51.747Z,35.90
2017-06-22T11:27:20.882Z,34.50
2017-06-22T11:29:50.175Z,35.50
2017-06-22T11:32:19.199Z,34.70
2017-06-22T11:34:48.252Z,32.70
2017-06-22T11:37:17.323Z,36.80
2017-06-22T11:39:46.489Z,35.40
2017-06-22T11:42:15.564Z,37.30
2017-06-22T11:44:45.188Z,37.00
2017-06-22T11:47:14.187Z,35.30
2017-06-22T11:49:43.433Z,36.70
2017-06-22T11:52:12.632Z,36.90
2017-06-22T11:54:41.851Z,36.50
2017-06-22T11:57:10.978Z,37.10
2017-06-22T11:59:40.067Z,41.50
2017-06-22T12:02:09.121Z,38.70
2017-06-22T12:04:38.318Z,38.60
2017-06-22T12:07:07.474Z,40.20
2017-06-22T12:09:36.593Z,40.60
2017-06-22T12:12:05.773Z,40.00
2017-06-22T12:14:34.770Z,40.00
2017-06-22T12:17:03.847Z,42.50
2017-06-22T12:19:33.057Z,40.60
2017-06-22T12:22:02.240Z,39.30
2017-06-22T12:24:31.483Z,38.40
2017-06-22T12:27:01.013Z,39.60
2017-06-22T12:29:30.094Z,39.70
2017-06-22T12:31:59.142Z,39.60
2017-06-22T12:34:28.233Z,40.50
2017-06-22T12:36:57.452Z,40.40
2017-06-22T12:39:27.764Z,41.70
2017-06-22T12:41:56.980Z,41.00
2017-06-22T12:44:26.128Z,40.90
2017-06-22T12:46:55.339Z,43.00
2017-06-22T12:49:25.004Z,43.30
2017-06-22T12:51:55.096Z,41.70
2017-06-22T12:54:24.350Z,42.20
2017-06-22T12:56:53.508Z,42.50
2017-06-22T12:59:22.604Z,44.20
2017-06-22T13:01:51.676Z,43.80
2017-06-22T13:04:20.828Z,43.50
2017-06-22T13:06:49.919Z,41.20
2017-06-22T13:09:18.984Z,42.60
2017-06-22T13:11:48.158Z,42.20
2017-06-22T13:14:17.280Z,43.30
2017-06-22T13:16:46.336Z,44.60
2017-06-22T13:19:16.457Z,45.90
2017-06-22T13:21:45.873Z,44.70
2017-06-22T13:24:14.877Z,47.80
2017-06-22T13:26:43.981Z,47.30
2017-06-22T13:29:13.109Z,47.80
2017-06-22T13:31:43.029Z,49.10
2017-06-22T13:34:12.165Z,48.50
2017-06-22T13:36:41.280Z,48.90
2017-06-22T13:39:10.290Z,49.20
2017-06-22T13:41:39.319Z,50.90
2017-06-22T13:44:09.006Z,52.30
2017-06-22T13:46:38.060Z,56.20
2017-06-22T13:49:07.181Z,59.80
2017-06-22T13:51:36.257Z,62.40
2017-06-22T13:54:05.356Z,66.10
2017-06-22T13:56:34.555Z,74.70
2017-06-22T13:59:03.708Z,81.00
2017-06-22T14:01:32.878Z,89.20
2017-06-22T14:04:02.144Z,95.40
2017-06-22T14:06:31.321Z,99.60
2017-06-22T14:09:00.368Z,99.70
2017-06-22T14:11:29.347Z,99.20
2017-06-22T14:13:58.410Z,99.90
2017-06-22T14:16:27.489Z,99.90
2017-06-22T14:18:56.667Z,99.90
2017-06-22T14:21:27.167Z,99.90
2017-06-22T14:23:56.607Z,99.90
2017-06-22T14:27:28.186Z,99.90
2017-06-22T14:29:57.259Z,99.90
2017-06-22T14:32:26.300Z,99.90
2017-06-22T14:34:55.317Z,99.90
2017-06-22T14:37:24.488Z,99.90
2017-06-22T14:39:53.518Z,99.90
2017-06-22T14:42:22.554Z,99.90
2017-06-22T14:44:51.574Z,99.90
2017-06-22T14:47:20.574Z,99.90
2017-06-22T14:49:49.628Z,99.90
2017-06-22T14:52:18.690Z,99.90
2017-06-22T14:54:47.748Z,99.90
2017-06-22T14:57:16.832Z,99.90
2017-06-22T14:59:45.875Z,99.90
2017-06-22T15:02:15.054Z,99.90
2017-06-22T15:04:44.140Z,99.90
2017-06-22T15:07:13.308Z,99.90
2017-06-22T15:09:42.353Z,99.90
2017-06-22T15:12:11.422Z,99.90
2017-06-22T15:14:40.535Z,99.90
2017-06-22T15:17:09.661Z,99.90
2017-06-22T15:19:38.661Z,99.90
2017-06-22T15:22:07.755Z,99.90
2017-06-22T15:24:36.783Z,99.90
2017-06-22T15:27:05.876Z,99.90
2017-06-22T15:29:35.035Z,99.90
2017-06-22T15:32:04.188Z,99.30
2017-06-22T15:34:33.252Z,99.40
2017-06-22T15:37:02.388Z,98.90
2017-06-22T15:39:31.464Z,99.60
2017-06-22T15:42:00.571Z,99.90
2017-06-22T15:44:29.646Z,99.90
2017-06-22T15:46:58.706Z,99.90
2017-06-22T15:49:27.778Z,96.50
2017-06-22T15:51:56.814Z,96.30
2017-06-22T15:54:26.016Z,96.00
2017-06-22T15:56:55.057Z,96.50
2017-06-22T15:59:24.177Z,96.40
2017-06-22T16:01:53.299Z,97.00
2017-06-22T16:04:22.337Z,97.60
2017-06-22T16:06:51.452Z,97.00
2017-06-22T16:09:20.481Z,97.00
2017-06-22T16:11:49.604Z,97.40
2017-06-22T16:14:18.667Z,98.00
2017-06-22T16:16:47.705Z,98.70
2017-06-22T16:19:16.795Z,99.60
2017-06-22T16:21:46.096Z,99.30
2017-06-22T16:24:15.167Z,99.20
2017-06-22T16:26:44.207Z,98.80
2017-06-22T16:29:13.229Z,98.20
2017-06-22T16:31:42.294Z,97.20
2017-06-22T16:34:11.649Z,96.10
2017-06-22T16:36:40.729Z,97.60
2017-06-22T16:39:09.799Z,97.10
2017-06-22T16:41:38.826Z,98.10
2017-06-22T16:44:07.870Z,97.90
2017-06-22T16:46:37.079Z,99.40
2017-06-22T16:49:06.217Z,99.90
2017-06-22T16:51:35.245Z,99.90
2017-06-22T16:54:04.332Z,99.90
2017-06-22T16:56:33.421Z,99.90
2017-06-22T16:59:03.428Z,99.90
2017-06-22T17:01:32.406Z,99.90
2017-06-22T17:04:01.466Z,99.90
2017-06-22T17:06:30.507Z,99.90
2017-06-22T17:08:59.505Z,99.90
2017-06-22T17:11:28.520Z,99.90
2017-06-22T17:13:57.558Z,99.90
2017-06-22T17:16:26.680Z,99.90
2017-06-22T17:18:55.815Z,99.90
2017-06-22T17:21:25.030Z,99.90
2017-06-22T17:23:54.111Z,99.90
2017-06-22T17:26:23.154Z,99.90
2017-06-22T17:28:52.234Z,99.90
2017-06-22T17:31:22.233Z,99.90
2017-06-22T17:33:51.350Z,99.90
2017-06-22T17:36:20.418Z,99.90
2017-06-22T17:38:50.404Z,99.90
2017-06-22T17:41:19.515Z,99.90
2017-06-22T17:43:48.621Z,99.90
2017-06-22T17:46:17.747Z,99.90
2017-06-22T17:48:46.871Z,99.90
2017-06-22T17:51:15.951Z,99.90
2017-06-22T17:53:45.007Z,99.90
2017-06-22T17:56:14.129Z,99.90
2017-06-22T17:58:43.124Z,99.90
2017-06-22T18:01:12.154Z,99.90
2017-06-22T18:03:41.254Z,99.90
2017-06-22T18:06:10.381Z,99.90
2017-06-22T18:08:39.663Z,99.90
2017-06-22T18:11:08.953Z,99.90
2017-06-22T18:13:38.102Z,99.90
2017-06-22T18:16:07.200Z,99.90
2017-06-22T18:18:36.273Z,99.90
2017-06-22T18:21:05.298Z,99.90
2017-06-22T18:23:34.387Z,99.90
2017-06-22T18:26:03.506Z,99.90
2017-06-22T18:28:32.505Z,99.90
2017-06-22T18:31:03.002Z,99.90
2017-06-22T18:33:32.097Z,99.90
2017-06-22T18:36:01.127Z,99.90
2017-06-22T18:38:30.165Z,99.90
2017-06-22T18:40:59.233Z,99.90
2017-06-22T18:43:28.380Z,99.90
2017-06-22T18:45:57.410Z,99.90
2017-06-22T18:48:26.747Z,99.90
2017-06-22T18:50:55.876Z,99.90
2017-06-22T18:53:24.971Z,99.90
2017-06-22T18:55:54.811Z,99.90
2017-06-22T18:58:23.891Z,99.90
2017-06-22T19:00:52.995Z,99.90
2017-06-22T19:03:22.129Z,99.90
2017-06-22T19:05:51.173Z,99.90
2017-06-22T19:08:20.264Z,99.90
2017-06-22T19:10:49.270Z,99.90
2017-06-22T19:13:18.391Z,99.90
2017-06-22T19:15:47.499Z,99.90
2017-06-22T19:18:16.613Z,99.90
2017-06-22T19:20:45.682Z,99.90
2017-06-22T19:23:14.867Z,99.90
2017-06-22T19:25:47.842Z,99.90
2017-06-22T19:28:16.954Z,99.90
2017-06-22T19:30:46.028Z,99.90
2017-06-22T19:33:15.095Z,99.90
2017-06-22T19:35:44.164Z,99.90
2017-06-22T19:38:13.329Z,99.90
2017-06-22T19:40:42.352Z,99.90
2017-06-22T19:43:11.449Z,99.90
2017-06-22T19:45:40.533Z,99.90
2017-06-22T19:48:09.567Z,99.90
2017-06-22T19:50:38.620Z,99.90
2017-06-22T19:53:07.648Z,99.90
2017-06-22T19:55:36.647Z,99.90
2017-06-22T19:58:05.659Z,99.90
2017-06-22T20:00:34.725Z,99.90
2017-06-22T20:03:03.749Z,99.90
2017-06-22T20:05:32.838Z,99.90
2017-06-22T20:08:01.937Z,99.90
2017-06-22T20:10:30.955Z,99.90
2017-06-22T20:13:00.011Z,99.90
2017-06-22T20:15:29.122Z,99.90
2017-06-22T20:17:58.153Z,99.90
2017-06-22T20:20:27.199Z,99.90
2017-06-22T20:22:56.231Z,99.90
2017-06-22T20:25:25.352Z,99.90
2017-06-22T20:27:54.666Z,99.90
2017-06-22T20:30:23.809Z,99.90
2017-06-22T20:32:52.930Z,99.90
2017-06-22T20:35:22.116Z,99.90
2017-06-22T20:37:51.307Z,99.90
2017-06-22T20:40:20.447Z,99.90
2017-06-22T20:42:49.487Z,99.90
2017-06-22T20:45:18.684Z,99.90
2017-06-22T20:47:47.881Z,99.90
2017-06-22T20:50:17.918Z,99.90
2017-06-22T20:52:47.005Z,99.90
2017-06-22T20:55:16.366Z,99.90
2017-06-22T20:57:45.612Z,99.90
2017-06-22T21:00:14.980Z,99.90
2017-06-22T21:02:44.067Z,99.90
2017-06-22T21:05:13.172Z,99.90
2017-06-22T21:07:42.190Z,99.90
2017-06-22T21:10:11.229Z,99.90
2017-06-22T21:12:40.213Z,99.90
2017-06-22T21:15:09.262Z,99.90
2017-06-22T21:17:38.325Z,99.90
2017-06-22T21:20:07.405Z,99.90
2017-06-22T21:22:36.435Z,99.90
2017-06-22T21:25:05.407Z,99.90
2017-06-22T21:27:34.392Z,99.90
2017-06-22T21:30:03.428Z,99.90
2017-06-22T21:32:32.409Z,99.90
2017-06-22T21:35:01.411Z,99.90
2017-06-22T21:37:30.502Z,99.90
2017-06-22T21:39:59.913Z,99.90
2017-06-22T21:42:28.924Z,99.90
2017-06-22T21:44:57.937Z,99.90
2017-06-22T21:47:26.969Z,99.90
2017-06-22T21:49:55.970Z,99.90
2017-06-22T21:52:25.018Z,99.90
2017-06-22T21:54:54.042Z,99.90
2017-06-22T21:57:23.013Z,99.90
2017-06-22T21:59:52.004Z,99.90
2017-06-22T22:02:21.051Z,99.90
2017-06-22T22:04:50.041Z,99.90
2017-06-22T22:07:19.061Z,99.90
2017-06-22T22:09:48.043Z,99.90
2017-06-22T22:12:17.034Z,99.90
2017-06-22T22:14:46.001Z,99.90
2017-06-22T22:17:15.013Z,99.90
2017-06-22T22:19:43.991Z,99.90
2017-06-22T22:22:12.965Z,99.90
2017-06-22T22:24:41.992Z,99.90
2017-06-22T22:27:11.005Z,99.90
2017-06-22T22:29:39.997Z,99.90
2017-06-22T22:32:09.134Z,99.90
2017-06-22T22:34:38.153Z,99.90
2017-06-22T22:37:07.176Z,99.90
2017-06-22T22:39:36.141Z,99.90
2017-06-22T22:42:05.161Z,99.90
2017-06-22T22:44:34.125Z,99.90
2017-06-22T22:47:03.118Z,99.90
2017-06-22T22:49:32.187Z,99.90
2017-06-22T22:52:01.207Z,99.90
2017-06-22T22:54:30.223Z,99.90
2017-06-22T22:57:00.173Z,99.90
2017-06-22T22:59:29.213Z,99.90
2017-06-22T23:01:58.200Z,99.90
2017-06-22T23:04:27.207Z,99.90
2017-06-22T23:06:56.219Z,99.90
2017-06-22T23:09:25.209Z,99.90
2017-06-22T23:11:54.157Z,99.90
2017-06-22T23:14:23.138Z,99.90
2017-06-22T23:16:52.365Z,99.90
2017-06-22T23:19:21.501Z,99.90
2017-06-22T23:21:50.508Z,99.90
2017-06-22T23:24:19.641Z,99.90
2017-06-22T23:26:48.631Z,99.90
2017-06-22T23:29:17.666Z,99.90
2017-06-22T23:31:46.636Z,99.90
2017-06-22T23:34:15.638Z,99.90
2017-06-22T23:36:44.614Z,99.90
2017-06-22T23:39:13.600Z,99.90
2017-06-22T23:41:43.764Z,99.90
2017-06-22T23:44:12.775Z,99.90
2017-06-22T23:46:41.744Z,99.90
2017-06-22T23:49:11.334Z,99.90
2017-06-22T23:51:40.351Z,99.90
2017-06-22T23:54:09.334Z,99.90
2017-06-22T23:56:38.359Z,99.90
2017-06-22T23:59:07.415Z,99.90
